Terminal Aerodrome Forecast
Issued by NWS Bismarck, ND

Home | Current Version | Previous Version | Graphics & Text | Print | Product List | Glossary On
Versions: 1 2 3 4 5 6 7 8 9 10 11 12 13 14 15 16 17 18 19 20
000
FTUS43 KBIS 222300
TAFBIS
TAF
KBIS 222337Z 2300/2324 07009KT P6SM BKN035
     FM230600 05009KT P6SM VCTS BKN030CB
     FM231200 06011KT 6SM SHRA OVC008
     FM231800 06014KT 2SM +SHRA BR OVC008=

USA.gov is the U.S. government's official web portal to all federal, state and local government web resources and services.